createdAt,value
2023-04-23T10:58:13.250Z,5.75
2023-04-23T11:03:34.433Z,5.45
2023-04-23T11:08:51.456Z,6.30
2023-04-23T11:13:57.675Z,6.72
2023-04-23T11:19:03.994Z,7.70
2023-04-23T11:24:07.807Z,6.68
2023-04-23T11:29:15.566Z,6.65
2023-04-23T11:34:19.744Z,7.05
2023-04-23T11:39:24.327Z,7.35
2023-04-23T11:44:29.549Z,6.95
2023-04-23T11:49:32.925Z,6.32
2023-04-23T11:54:36.567Z,6.13
2023-04-23T11:59:41.939Z,6.07
2023-04-23T12:04:45.362Z,6.05
2023-04-23T12:09:48.772Z,5.28
2023-04-23T12:15:04.074Z,5.45
2023-04-23T12:20:13.270Z,4.25
2023-04-23T12:25:17.166Z,4.22
2023-04-23T12:30:22.337Z,4.80
2023-04-23T12:35:38.409Z,3.58
2023-04-23T12:40:41.880Z,4.10
2023-04-23T12:45:46.898Z,4.03
2023-04-23T12:50:50.308Z,2.97
2023-04-23T12:55:54.717Z,3.25
2023-04-23T13:01:00.323Z,3.22
2023-04-23T13:06:04.405Z,3.25
2023-04-23T13:11:07.758Z,2.70
2023-04-23T13:16:13.002Z,2.95
2023-04-23T13:21:16.604Z,2.60
2023-04-23T13:26:21.383Z,2.30
2023-04-23T13:31:26.232Z,1.83
2023-04-23T13:36:30.321Z,1.55
2023-04-23T13:41:33.559Z,1.42
2023-04-23T13:46:40.147Z,1.67
2023-04-23T13:51:44.014Z,1.50
2023-04-23T13:56:47.860Z,1.27
2023-04-23T14:01:52.504Z,1.43
2023-04-23T14:06:56.016Z,1.08
2023-04-23T14:11:59.408Z,1.10
2023-04-23T14:17:04.927Z,1.23
2023-04-23T14:22:08.602Z,1.38
2023-04-23T14:27:11.921Z,0.98
2023-04-23T14:32:17.474Z,1.13
2023-04-23T14:42:24.880Z,1.00
2023-04-23T14:47:29.857Z,1.10
2023-04-23T14:52:33.248Z,1.15
2023-04-23T14:57:36.448Z,1.10
2023-04-23T15:02:42.111Z,1.20
2023-04-23T15:07:45.965Z,1.08
2023-04-23T15:12:58.459Z,0.77
2023-04-23T15:18:03.719Z,1.10
2023-04-23T15:23:07.484Z,1.98
2023-04-23T15:28:10.844Z,0.90
2023-04-23T15:33:17.624Z,1.02
2023-04-23T15:38:21.301Z,0.88
2023-04-23T15:43:24.655Z,0.60
2023-04-23T15:48:29.725Z,1.08
2023-04-23T15:53:33.038Z,0.73
2023-04-23T15:58:36.259Z,1.00
2023-04-23T16:03:53.546Z,0.82
2023-04-23T16:09:09.687Z,0.90
2023-04-23T16:14:13.232Z,0.82
2023-04-23T16:19:19.003Z,1.00
2023-04-23T16:24:23.249Z,1.25
2023-04-23T16:29:26.629Z,1.23
2023-04-23T16:34:31.206Z,1.00
2023-04-23T16:39:34.627Z,1.33
2023-04-23T16:44:38.000Z,0.95
2023-04-23T16:49:42.782Z,0.95
2023-04-23T16:54:46.166Z,0.90
2023-04-23T16:59:49.506Z,1.05
2023-04-23T17:04:55.326Z,1.20
2023-04-23T17:09:58.973Z,1.00
2023-04-23T17:15:02.419Z,1.10
2023-04-23T17:20:09.175Z,2.20
2023-04-23T17:25:12.658Z,1.42
2023-04-23T17:30:16.383Z,1.65
2023-04-23T17:35:21.479Z,1.20
2023-04-23T17:45:28.457Z,1.20
2023-04-23T17:50:33.573Z,1.10
2023-04-23T17:55:37.589Z,1.40
2023-04-23T18:00:42.575Z,1.25
2023-04-23T18:05:47.244Z,1.42
2023-04-23T18:10:50.694Z,2.20
2023-04-23T18:15:54.268Z,3.22
2023-04-23T18:20:59.207Z,2.38
2023-04-23T18:26:02.577Z,2.10
2023-04-23T18:31:06.402Z,7.18
2023-04-23T18:36:21.945Z,5.10
2023-04-23T18:41:25.649Z,4.55
2023-04-23T18:46:31.204Z,3.75
2023-04-23T18:51:43.669Z,2.40
2023-04-23T18:56:47.540Z,2.47
2023-04-23T19:01:51.001Z,2.08
2023-04-23T19:06:57.463Z,4.20
2023-04-23T19:12:01.798Z,3.78
2023-04-23T19:17:05.518Z,2.83
2023-04-23T19:22:10.153Z,2.45
2023-04-23T19:27:13.519Z,2.55
2023-04-23T19:32:17.629Z,2.22
2023-04-23T19:37:23.904Z,2.35
2023-04-23T19:42:29.874Z,2.15
2023-04-23T19:47:38.741Z,2.13
2023-04-23T19:52:43.397Z,1.98
2023-04-23T19:57:47.565Z,2.47
2023-04-23T20:02:52.078Z,2.05
2023-04-23T20:07:58.276Z,2.10
2023-04-23T20:13:01.954Z,2.28
2023-04-23T20:18:06.043Z,2.17
2023-04-23T20:23:10.919Z,2.63
2023-04-23T20:28:14.575Z,2.67
2023-04-23T20:33:18.734Z,2.42
2023-04-23T20:38:23.954Z,2.80
2023-04-23T20:43:27.550Z,2.30
2023-04-23T20:48:31.016Z,2.95
2023-04-23T20:53:35.778Z,3.15
2023-04-23T21:03:43.132Z,3.67
2023-04-23T21:08:48.127Z,4.20
2023-04-23T21:13:51.614Z,3.15
2023-04-23T21:18:54.978Z,3.33
2023-04-23T21:24:01.085Z,3.95
2023-04-23T21:29:04.511Z,3.38
2023-04-23T21:34:08.523Z,3.30
2023-04-23T21:39:13.582Z,3.75
2023-04-23T21:49:20.958Z,3.25
2023-04-23T21:54:26.791Z,3.38
2023-04-23T21:59:30.857Z,3.72
2023-04-23T22:04:34.785Z,2.95
2023-04-23T22:09:39.960Z,3.55
2023-04-23T22:19:46.525Z,3.88
2023-04-23T22:24:51.358Z,4.70
2023-04-23T22:29:54.924Z,3.58
2023-04-23T22:34:59.346Z,3.80
2023-04-23T22:40:05.541Z,4.32
2023-04-23T22:45:09.394Z,4.55
2023-04-23T23:13:29.094Z,4.90
2023-04-23T23:18:32.980Z,3.85
2023-04-23T23:23:37.578Z,4.03
2023-04-23T23:28:42.670Z,4.00
2023-04-23T23:33:46.069Z,3.85
2023-04-23T23:38:50.986Z,4.13
2023-04-23T23:43:56.595Z,3.80
2023-04-23T23:49:00.450Z,4.00
2023-04-23T23:54:03.981Z,3.38
2023-04-23T23:59:09.227Z,3.40
